Time;durP1;ratioP1;P1;durP2;ratioP2;P2;SDS_P1;SDS_P2;PMS_P1;PMS_P2;Temp;Humidity;BMP_temperature;BMP_pressure;BME280_temperature;BME280_humidity;BME280_pressure;Samples;Min_cycle;Max_cycle;Signal;HPM_P1;HPM_P2
2024/01/25 00:00:27;;;;;;;8.90;2.97;;;8.50;99.90;;;;;;5005632;28;20455;-61
2024/01/25 00:02:53;;;;;;;12.53;5.10;;;8.50;99.90;;;;;;5013204;28;20222;-62
2024/01/25 00:05:19;;;;;;;18.00;3.50;;;8.50;99.90;;;;;;5017149;28;20644;-62
2024/01/25 00:07:45;;;;;;;11.20;3.40;;;8.50;99.90;;;;;;5010168;28;20212;-61
2024/01/25 00:10:11;;;;;;;15.80;3.57;;;8.50;99.90;;;;;;5014103;28;20446;-60
2024/01/25 00:12:37;;;;;;;10.70;3.63;;;8.50;99.90;;;;;;5028881;28;20509;-62
2024/01/25 00:15:03;;;;;;;14.73;4.13;;;8.50;99.90;;;;;;5016789;28;20180;-62
2024/01/25 00:17:28;;;;;;;15.57;4.10;;;8.50;99.90;;;;;;5017062;28;20595;-62
2024/01/25 00:19:54;;;;;;;10.97;4.10;;;8.40;99.90;;;;;;5012669;28;20437;-62
2024/01/25 00:22:20;;;;;;;13.90;4.00;;;8.40;99.90;;;;;;5016259;28;20631;-61
2024/01/25 00:24:45;;;;;;;17.47;4.07;;;8.40;99.90;;;;;;5025722;28;20197;-63
2024/01/25 00:27:11;;;;;;;12.60;3.67;;;8.40;99.90;;;;;;5016341;28;20504;-63
2024/01/25 00:29:37;;;;;;;12.00;4.70;;;8.40;99.90;;;;;;5017682;28;20650;-63
2024/01/25 00:32:03;;;;;;;10.90;3.83;;;8.30;99.90;;;;;;5025112;28;20210;-62
2024/01/25 00:34:28;;;;;;;9.90;3.07;;;8.30;99.90;;;;;;5016243;28;20231;-63
2024/01/25 00:36:54;;;;;;;17.97;3.63;;;8.30;99.90;;;;;;5014370;28;20487;-63
2024/01/25 00:39:20;;;;;;;15.70;3.63;;;8.30;99.90;;;;;;5016024;28;20241;-62
2024/01/25 00:41:49;;;;;;;12.67;3.27;;;8.40;99.90;;;;;;5011431;28;20437;-64
2024/01/25 00:44:15;;;;;;;7.27;3.07;;;8.40;99.90;;;;;;5015071;28;20454;-63
2024/01/25 00:46:41;;;;;;;12.10;3.47;;;8.30;99.90;;;;;;5016938;28;20473;-63
2024/01/25 00:49:07;;;;;;;16.27;3.33;;;8.40;99.90;;;;;;5014507;28;20501;-63
2024/01/25 00:51:33;;;;;;;17.13;3.30;;;8.40;99.90;;;;;;5013405;28;20419;-63
2024/01/25 00:53:59;;;;;;;15.83;3.73;;;8.40;99.90;;;;;;5015145;28;20521;-63
2024/01/25 00:56:25;;;;;;;15.17;4.57;;;8.40;99.90;;;;;;5019162;28;20430;-63
2024/01/25 00:58:51;;;;;;;10.23;3.40;;;8.40;99.90;;;;;;5013658;28;20195;-61
2024/01/25 01:01:20;;;;;;;15.30;3.37;;;8.30;99.90;;;;;;5013854;28;20214;-62
2024/01/25 01:03:52;;;;;;;16.77;3.00;;;8.40;99.90;;;;;;5013442;28;20213;-62
2024/01/25 01:06:21;;;;;;;8.57;3.43;;;8.30;99.90;;;;;;5018290;28;20438;-62
2024/01/25 01:08:46;;;;;;;11.40;3.27;;;8.30;99.90;;;;;;5015393;28;20533;-62
2024/01/25 01:11:12;;;;;;;14.87;3.37;;;8.30;99.90;;;;;;5018178;28;20501;-62
2024/01/25 01:13:38;;;;;;;13.13;3.93;;;8.30;99.90;;;;;;5021765;28;20469;-62
2024/01/25 01:16:04;;;;;;;13.33;3.53;;;8.30;99.90;;;;;;5017879;28;20195;-62
2024/01/25 01:18:29;;;;;;;11.87;3.47;;;8.30;99.90;;;;;;5016929;28;20183;-62
2024/01/25 01:20:55;;;;;;;12.73;3.50;;;8.30;99.90;;;;;;5015949;28;20421;-62
2024/01/25 01:23:20;;;;;;;9.17;3.07;;;8.30;99.90;;;;;;5018980;28;20257;-62
2024/01/25 01:25:46;;;;;;;19.77;3.00;;;8.30;99.90;;;;;;5016060;28;20186;-62
2024/01/25 01:28:12;;;;;;;12.07;3.77;;;8.30;99.90;;;;;;5018397;28;20216;-62
2024/01/25 01:30:41;;;;;;;9.23;2.97;;;8.30;99.90;;;;;;5014064;28;20251;-62
2024/01/25 01:33:10;;;;;;;13.03;3.53;;;8.30;99.90;;;;;;5016422;28;20302;-62
2024/01/25 01:35:35;;;;;;;12.40;3.67;;;8.30;99.90;;;;;;5017640;28;20420;-61
2024/01/25 01:38:01;;;;;;;8.07;3.10;;;8.30;99.90;;;;;;5016699;28;20427;-62
2024/01/25 01:40:27;;;;;;;12.67;3.63;;;8.30;99.90;;;;;;5019760;28;20270;-62
2024/01/25 01:42:59;;;;;;;18.53;4.70;;;8.30;99.90;;;;;;5014814;28;20586;-62
2024/01/25 01:45:25;;;;;;;14.73;4.17;;;8.30;99.90;;;;;;5016977;28;20364;-62
2024/01/25 01:47:50;;;;;;;9.07;3.13;;;8.30;99.90;;;;;;5015451;28;20534;-62
2024/01/25 01:50:16;;;;;;;6.90;3.17;;;8.30;99.90;;;;;;5017630;28;20183;-62
2024/01/25 01:52:42;;;;;;;13.20;3.93;;;8.30;99.90;;;;;;5017695;28;20229;-61
2024/01/25 01:55:08;;;;;;;10.67;3.40;;;8.20;99.90;;;;;;5016626;28;20186;-62
2024/01/25 01:57:36;;;;;;;9.47;2.40;;;8.30;99.90;;;;;;5010582;28;20856;-62
2024/01/25 02:00:04;;;;;;;11.33;3.63;;;8.30;99.90;;;;;;5020410;28;20424;-63
2024/01/25 02:02:30;;;;;;;6.83;3.23;;;8.20;99.90;;;;;;5014202;28;20444;-61
2024/01/25 02:04:55;;;;;;;12.40;2.67;;;8.20;99.90;;;;;;5022018;28;20425;-63
2024/01/25 02:07:21;;;;;;;9.93;4.40;;;8.20;99.90;;;;;;5014764;28;20237;-61
2024/01/25 02:09:47;;;;;;;9.83;3.00;;;8.20;99.90;;;;;;4999602;28;20211;-62
2024/01/25 02:12:17;;;;;;;10.83;3.53;;;8.20;99.90;;;;;;5010445;28;20210;-63
2024/01/25 02:14:42;;;;;;;10.27;3.27;;;8.20;99.90;;;;;;5014107;28;20191;-63
2024/01/25 02:17:08;;;;;;;17.20;4.10;;;8.20;99.90;;;;;;5004749;28;20470;-62
2024/01/25 02:19:34;;;;;;;11.10;4.23;;;8.20;99.90;;;;;;5006241;28;20186;-63
2024/01/25 02:21:59;;;;;;;19.53;4.93;;;8.20;99.90;;;;;;5021716;28;20181;-64
2024/01/25 02:24:25;;;;;;;14.43;3.83;;;8.10;99.90;;;;;;5013893;28;20224;-63
2024/01/25 02:26:51;;;;;;;12.63;3.13;;;8.10;99.90;;;;;;5016325;28;20236;-62
2024/01/25 02:29:16;;;;;;;17.57;3.87;;;8.10;99.90;;;;;;5012052;28;20198;-62
2024/01/25 02:31:42;;;;;;;8.37;2.67;;;8.10;99.90;;;;;;5012287;28;20194;-63
2024/01/25 02:34:07;;;;;;;13.30;3.23;;;8.10;99.90;;;;;;5007466;28;20761;-63
2024/01/25 02:36:33;;;;;;;16.03;5.40;;;8.10;99.90;;;;;;5011067;28;20261;-62
2024/01/25 02:38:58;;;;;;;15.67;4.50;;;8.10;99.90;;;;;;5012484;28;20280;-62
2024/01/25 02:41:24;;;;;;;8.40;3.30;;;8.00;99.90;;;;;;5008538;28;20185;-63
2024/01/25 02:43:50;;;;;;;11.17;4.40;;;8.00;99.90;;;;;;5021755;28;20227;-63
2024/01/25 02:46:15;;;;;;;19.40;4.07;;;8.00;99.90;;;;;;5016004;28;20683;-62
2024/01/25 02:48:41;;;;;;;11.43;2.70;;;8.00;99.90;;;;;;5018428;28;20256;-61
2024/01/25 02:51:06;;;;;;;24.80;3.60;;;8.00;99.90;;;;;;5012640;28;20197;-63
2024/01/25 02:53:32;;;;;;;11.20;3.50;;;8.00;99.90;;;;;;5010288;28;20291;-63
2024/01/25 02:55:57;;;;;;;12.47;3.57;;;8.00;99.90;;;;;;5013061;28;20681;-63
2024/01/25 02:58:23;;;;;;;12.43;3.57;;;8.00;99.90;;;;;;5018770;28;20179;-61
2024/01/25 03:00:48;;;;;;;14.63;3.17;;;8.00;99.90;;;;;;5010229;28;20266;-62
2024/01/25 03:03:14;;;;;;;14.13;3.30;;;8.00;99.90;;;;;;5018158;28;20207;-62
2024/01/25 03:05:40;;;;;;;12.90;4.13;;;8.00;99.90;;;;;;5011331;28;20187;-62
2024/01/25 03:08:05;;;;;;;8.70;2.67;;;7.90;99.90;;;;;;5015361;28;20679;-63
2024/01/25 03:10:31;;;;;;;10.97;4.53;;;8.00;99.90;;;;;;5018240;28;20189;-62
2024/01/25 03:12:56;;;;;;;12.30;2.93;;;8.00;99.90;;;;;;5012860;28;20848;-63
2024/01/25 03:15:22;;;;;;;8.80;2.97;;;8.00;99.90;;;;;;5019216;28;20210;-63
2024/01/25 03:17:48;;;;;;;18.13;4.87;;;8.00;99.90;;;;;;5011463;28;20244;-63
2024/01/25 03:20:13;;;;;;;12.57;3.20;;;7.90;99.90;;;;;;5018496;28;20257;-62
2024/01/25 03:22:39;;;;;;;14.67;4.03;;;7.90;99.90;;;;;;5018172;28;20212;-63
2024/01/25 03:25:05;;;;;;;20.60;4.27;;;8.00;99.90;;;;;;5015568;28;20236;-63
2024/01/25 03:27:30;;;;;;;14.47;4.63;;;7.90;99.90;;;;;;5014962;28;20272;-63
2024/01/25 03:29:56;;;;;;;11.63;3.30;;;8.00;99.90;;;;;;5009659;28;20187;-63
2024/01/25 03:32:22;;;;;;;15.93;3.37;;;8.00;99.90;;;;;;5010834;28;20676;-62
2024/01/25 03:34:47;;;;;;;21.97;3.30;;;7.90;99.90;;;;;;5010929;28;20220;-63
2024/01/25 03:37:13;;;;;;;14.77;3.17;;;7.90;99.90;;;;;;5010809;28;20193;-63
2024/01/25 03:39:38;;;;;;;17.03;4.30;;;7.90;99.90;;;;;;5010300;28;20185;-62
2024/01/25 03:42:04;;;;;;;7.73;3.37;;;7.90;99.90;;;;;;5010487;28;20271;-63
2024/01/25 03:44:30;;;;;;;11.50;3.77;;;7.90;99.90;;;;;;5010460;28;20207;-62
2024/01/25 03:46:55;;;;;;;16.53;4.40;;;7.90;99.90;;;;;;5015672;28;20634;-63
2024/01/25 03:49:22;;;;;;;12.30;4.03;;;7.90;99.90;;;;;;5010521;28;20180;-63
2024/01/25 03:51:48;;;;;;;13.10;3.93;;;7.90;99.90;;;;;;5011093;28;20189;-62
2024/01/25 03:54:14;;;;;;;13.53;2.90;;;7.90;99.90;;;;;;5017122;28;20468;-63
2024/01/25 03:56:40;;;;;;;9.40;3.10;;;7.90;99.90;;;;;;5010646;28;20886;-63
2024/01/25 03:59:10;;;;;;;15.00;3.27;;;7.90;99.90;;;;;;5013900;28;20208;-63
2024/01/25 04:01:44;;;;;;;11.40;3.10;;;7.90;99.90;;;;;;5009735;28;20184;-63
2024/01/25 04:04:10;;;;;;;7.80;2.73;;;7.90;99.90;;;;;;5017378;28;20427;-63
2024/01/25 04:06:38;;;;;;;20.63;3.47;;;7.90;99.90;;;;;;5011571;28;20415;-63
2024/01/25 04:09:04;;;;;;;11.50;2.90;;;7.80;99.90;;;;;;5011968;28;20464;-63
2024/01/25 04:11:30;;;;;;;10.80;3.37;;;7.80;99.90;;;;;;5011526;28;20441;-63
2024/01/25 04:13:56;;;;;;;14.17;2.53;;;7.80;99.90;;;;;;5010725;28;20461;-63
2024/01/25 04:16:21;;;;;;;10.23;3.93;;;7.80;99.90;;;;;;5018271;28;20611;-63
2024/01/25 04:18:47;;;;;;;9.40;3.50;;;7.80;99.90;;;;;;5011259;28;20263;-63
2024/01/25 04:21:12;;;;;;;16.00;3.57;;;7.80;99.90;;;;;;5015990;28;20182;-63
2024/01/25 04:23:38;;;;;;;16.70;3.90;;;7.80;99.90;;;;;;5016354;28;20210;-63
2024/01/25 04:26:03;;;;;;;17.70;3.50;;;7.80;99.90;;;;;;5012424;28;20227;-63
2024/01/25 04:28:29;;;;;;;11.87;4.20;;;7.80;99.90;;;;;;5013979;28;20329;-61
2024/01/25 04:30:54;;;;;;;9.17;3.67;;;7.80;99.90;;;;;;5009604;28;20193;-61
2024/01/25 04:33:20;;;;;;;17.37;3.47;;;7.80;99.90;;;;;;5015770;28;20232;-61
2024/01/25 04:35:46;;;;;;;12.10;3.57;;;7.80;99.90;;;;;;5015171;28;20175;-62
2024/01/25 04:38:11;;;;;;;11.00;3.17;;;7.80;99.90;;;;;;5014956;28;20232;-62
2024/01/25 04:40:37;;;;;;;20.63;3.87;;;7.80;99.90;;;;;;5009990;28;20249;-61
2024/01/25 04:43:03;;;;;;;16.77;3.60;;;7.80;99.90;;;;;;5010027;28;20227;-62
2024/01/25 04:45:28;;;;;;;9.07;3.17;;;7.80;99.90;;;;;;5015598;28;20319;-62
2024/01/25 04:47:54;;;;;;;15.50;3.60;;;7.70;99.90;;;;;;5015051;28;20259;-62
2024/01/25 04:50:20;;;;;;;12.83;3.40;;;7.80;99.90;;;;;;5016395;28;20195;-60
2024/01/25 04:52:45;;;;;;;14.67;3.10;;;7.70;99.90;;;;;;5016981;28;20469;-61
2024/01/25 04:55:11;;;;;;;13.03;3.37;;;7.70;99.90;;;;;;5012951;28;20189;-62
2024/01/25 04:57:37;;;;;;;9.50;3.50;;;7.80;99.90;;;;;;5015599;28;20208;-62
2024/01/25 05:00:02;;;;;;;17.83;5.30;;;7.70;99.90;;;;;;5010548;28;20177;-64
2024/01/25 05:02:28;;;;;;;13.17;3.10;;;7.70;99.90;;;;;;5017308;28;20193;-64
2024/01/25 05:04:54;;;;;;;15.33;4.30;;;7.80;99.90;;;;;;5017877;28;20416;-63
2024/01/25 05:07:19;;;;;;;11.30;3.23;;;7.80;99.90;;;;;;5014990;28;20233;-61
2024/01/25 05:09:45;;;;;;;14.03;3.43;;;7.80;99.90;;;;;;5015743;28;20743;-62
2024/01/25 05:12:10;;;;;;;16.80;4.10;;;7.80;99.90;;;;;;5013633;28;20223;-62
2024/01/25 05:14:36;;;;;;;12.77;3.30;;;7.70;99.90;;;;;;5017633;28;20201;-61
2024/01/25 05:17:02;;;;;;;9.80;4.60;;;7.70;99.90;;;;;;5011920;28;20177;-61
2024/01/25 05:19:27;;;;;;;13.23;3.03;;;7.70;99.90;;;;;;5015815;28;20192;-62
2024/01/25 05:21:53;;;;;;;11.47;2.67;;;7.70;99.90;;;;;;5009721;28;20713;-62
2024/01/25 05:24:19;;;;;;;8.40;4.23;;;7.70;99.90;;;;;;5016978;28;20226;-62
2024/01/25 05:26:44;;;;;;;14.83;3.00;;;7.70;99.90;;;;;;5015841;28;20591;-61
2024/01/25 05:29:10;;;;;;;21.53;3.80;;;7.70;99.90;;;;;;5023172;28;20176;-61
2024/01/25 05:31:36;;;;;;;14.77;4.00;;;7.70;99.90;;;;;;5014164;28;20678;-62
2024/01/25 05:34:02;;;;;;;7.43;3.67;;;7.70;99.90;;;;;;5009460;28;20268;-62
2024/01/25 05:36:27;;;;;;;8.30;3.57;;;7.70;99.90;;;;;;5017807;28;20254;-63
2024/01/25 05:38:53;;;;;;;17.37;3.10;;;7.70;99.90;;;;;;5009434;28;20417;-63
2024/01/25 05:41:18;;;;;;;6.63;2.73;;;7.70;99.90;;;;;;5010526;28;20258;-63
2024/01/25 05:43:44;;;;;;;14.73;4.40;;;7.70;99.90;;;;;;5011442;28;20206;-62
2024/01/25 05:46:10;;;;;;;14.03;4.43;;;7.70;99.90;;;;;;5014229;28;20187;-63
2024/01/25 05:48:35;;;;;;;15.73;2.90;;;7.70;99.90;;;;;;5012030;28;20182;-63
2024/01/25 05:51:01;;;;;;;11.30;5.17;;;7.70;99.90;;;;;;5014530;28;20653;-63
2024/01/25 05:53:27;;;;;;;11.57;4.87;;;7.70;99.90;;;;;;5020272;28;20224;-63
2024/01/25 05:55:52;;;;;;;9.40;3.00;;;7.70;99.90;;;;;;5016204;28;20432;-61
2024/01/25 05:58:18;;;;;;;14.63;2.80;;;7.70;99.90;;;;;;5017266;28;20229;-63
2024/01/25 06:00:44;;;;;;;16.23;3.67;;;7.70;99.90;;;;;;5016891;28;20192;-62
2024/01/25 06:03:09;;;;;;;12.40;3.80;;;7.70;99.90;;;;;;5018835;28;20216;-63
2024/01/25 06:05:35;;;;;;;10.00;3.20;;;7.70;99.90;;;;;;5014211;28;20192;-62
2024/01/25 06:08:00;;;;;;;13.37;3.10;;;7.70;99.90;;;;;;5016475;28;20251;-63
2024/01/25 06:10:26;;;;;;;13.80;3.20;;;7.70;99.90;;;;;;5020610;28;20755;-63
2024/01/25 06:12:51;;;;;;;12.90;2.90;;;7.70;99.90;;;;;;5016782;28;20570;-63
2024/01/25 06:15:17;;;;;;;11.47;2.70;;;7.70;99.90;;;;;;5019455;28;20180;-63
2024/01/25 06:17:42;;;;;;;20.70;5.63;;;7.70;99.90;;;;;;5015711;28;20277;-63
2024/01/25 06:20:10;;;;;;;23.63;4.40;;;7.80;99.90;;;;;;5016963;28;20699;-63
2024/01/25 06:22:35;;;;;;;8.83;3.00;;;7.80;99.90;;;;;;5015398;28;20206;-63
2024/01/25 06:25:03;;;;;;;9.63;3.27;;;7.70;99.90;;;;;;5017459;28;20758;-62
2024/01/25 06:27:29;;;;;;;15.27;4.60;;;7.70;99.90;;;;;;5014745;28;20236;-62
2024/01/25 06:29:55;;;;;;;9.10;4.90;;;7.80;99.90;;;;;;5009787;28;21199;-63
2024/01/25 06:32:20;;;;;;;12.27;2.37;;;7.70;99.90;;;;;;5018128;28;20469;-63
2024/01/25 06:34:46;;;;;;;10.47;3.50;;;7.70;99.90;;;;;;5016296;28;20186;-63
2024/01/25 06:37:15;;;;;;;13.33;2.67;;;7.70;99.90;;;;;;5018125;28;20188;-63
2024/01/25 06:39:40;;;;;;;15.90;5.13;;;7.70;99.90;;;;;;5013448;28;20612;-63
2024/01/25 06:42:06;;;;;;;13.70;3.50;;;7.70;99.90;;;;;;5011539;28;20662;-63
2024/01/25 06:44:32;;;;;;;9.93;3.10;;;7.70;99.90;;;;;;5013785;28;20210;-63
2024/01/25 06:46:58;;;;;;;9.43;3.40;;;7.70;99.90;;;;;;5017556;28;20899;-63
2024/01/25 06:49:23;;;;;;;12.00;3.17;;;7.70;99.90;;;;;;5012357;28;20256;-63
2024/01/25 06:51:49;;;;;;;14.63;3.70;;;7.70;99.90;;;;;;5011679;28;20181;-63
2024/01/25 06:54:15;;;;;;;12.33;4.20;;;7.70;99.90;;;;;;5012201;28;20259;-63
2024/01/25 06:56:41;;;;;;;10.10;2.93;;;7.70;99.90;;;;;;5015378;28;20436;-63
2024/01/25 06:59:07;;;;;;;16.40;3.10;;;7.70;99.90;;;;;;5017562;28;20265;-63
2024/01/25 07:01:32;;;;;;;11.13;2.90;;;7.70;99.90;;;;;;5015347;28;20495;-63
2024/01/25 07:03:58;;;;;;;11.97;5.00;;;7.80;99.90;;;;;;5018723;28;20211;-62
2024/01/25 07:06:24;;;;;;;16.57;2.90;;;7.70;99.90;;;;;;5012516;28;20982;-60
2024/01/25 07:08:50;;;;;;;16.30;3.30;;;7.70;99.90;;;;;;5014968;28;20182;-60
2024/01/25 07:11:17;;;;;;;13.93;2.73;;;7.80;99.90;;;;;;5013563;28;20421;-63
2024/01/25 07:13:42;;;;;;;13.37;3.07;;;7.80;99.90;;;;;;5016971;28;20222;-63
2024/01/25 07:16:08;;;;;;;6.73;2.97;;;7.80;99.90;;;;;;5019186;28;20415;-62
2024/01/25 07:18:34;;;;;;;7.67;2.77;;;7.80;99.90;;;;;;5013037;28;20189;-62
2024/01/25 07:20:59;;;;;;;14.20;3.10;;;7.80;99.90;;;;;;5016718;28;20182;-64
2024/01/25 07:23:26;;;;;;;8.83;2.60;;;7.80;99.90;;;;;;5014176;28;20451;-61
2024/01/25 07:25:52;;;;;;;8.40;2.70;;;7.70;99.90;;;;;;5016769;28;20297;-62
2024/01/25 07:28:21;;;;;;;12.57;2.80;;;7.80;99.90;;;;;;5008606;28;20429;-61
2024/01/25 07:30:49;;;;;;;9.90;2.53;;;7.80;99.90;;;;;;5012167;28;20191;-62
2024/01/25 07:33:15;;;;;;;12.10;2.43;;;7.70;99.90;;;;;;5015875;28;20518;-64
2024/01/25 07:35:45;;;;;;;12.13;2.93;;;7.80;99.90;;;;;;5013732;28;20419;-60
2024/01/25 07:38:14;;;;;;;10.60;4.23;;;7.80;99.90;;;;;;5018667;28;20895;-60
2024/01/25 07:40:40;;;;;;;14.03;3.70;;;7.80;99.90;;;;;;5010880;28;20857;-63
2024/01/25 07:43:06;;;;;;;9.83;3.60;;;7.80;99.90;;;;;;5012379;28;20537;-64
2024/01/25 07:45:32;;;;;;;9.13;3.00;;;7.80;99.90;;;;;;5016734;28;20561;-64
2024/01/25 07:47:58;;;;;;;9.27;2.83;;;7.80;99.90;;;;;;5012083;28;20693;-62
2024/01/25 07:50:23;;;;;;;19.40;3.50;;;7.80;99.90;;;;;;5020008;28;20438;-62
2024/01/25 07:52:49;;;;;;;6.10;2.53;;;7.80;99.90;;;;;;5011980;28;20734;-61
2024/01/25 07:55:16;;;;;;;19.13;3.03;;;7.80;99.90;;;;;;5029643;28;20183;-63
2024/01/25 07:57:41;;;;;;;6.60;2.57;;;7.80;99.90;;;;;;5016487;28;20477;-64
2024/01/25 08:00:08;;;;;;;9.07;2.40;;;7.80;99.90;;;;;;5014461;28;20429;-60
2024/01/25 08:02:35;;;;;;;16.07;4.40;;;7.80;99.90;;;;;;5020383;28;20206;-61
2024/01/25 08:05:01;;;;;;;6.77;3.13;;;7.80;99.90;;;;;;5011605;28;20529;-61
2024/01/25 08:07:28;;;;;;;13.93;3.10;;;7.80;99.90;;;;;;5017972;28;20420;-61
2024/01/25 08:09:57;;;;;;;11.10;2.80;;;7.80;99.90;;;;;;5009967;28;20436;-61
2024/01/25 08:12:22;;;;;;;12.93;3.33;;;7.70;99.90;;;;;;5010490;28;20973;-62
2024/01/25 08:14:48;;;;;;;14.70;3.80;;;7.80;99.90;;;;;;5014610;28;20520;-62
2024/01/25 08:17:14;;;;;;;12.90;4.77;;;7.80;99.90;;;;;;5014274;28;20762;-62
2024/01/25 08:19:39;;;;;;;10.97;3.57;;;7.80;99.90;;;;;;5008389;28;20183;-61
2024/01/25 08:22:05;;;;;;;8.93;3.33;;;7.80;99.90;;;;;;5002751;28;20261;-62
2024/01/25 08:24:31;;;;;;;6.87;2.37;;;7.80;99.90;;;;;;5003663;28;20203;-63
2024/01/25 08:26:56;;;;;;;7.77;2.43;;;7.80;99.90;;;;;;5014385;28;20543;-62
2024/01/25 08:29:22;;;;;;;13.10;4.03;;;7.80;99.90;;;;;;5008119;28;20429;-59
2024/01/25 08:31:48;;;;;;;20.50;5.67;;;7.80;99.90;;;;;;5012621;28;20317;-62
2024/01/25 08:34:13;;;;;;;10.43;3.30;;;7.80;99.90;;;;;;5013870;28;20209;-62
2024/01/25 08:36:39;;;;;;;9.73;2.73;;;7.90;99.90;;;;;;5016457;28;20194;-61
2024/01/25 08:39:05;;;;;;;7.07;2.60;;;7.90;99.90;;;;;;5017578;28;20181;-61
2024/01/25 08:41:31;;;;;;;16.23;4.47;;;7.80;99.90;;;;;;5011681;28;20549;-59
2024/01/25 08:43:56;;;;;;;19.20;3.60;;;7.80;99.90;;;;;;5010217;28;20452;-62
2024/01/25 08:46:22;;;;;;;7.70;2.30;;;7.90;99.90;;;;;;5010028;28;20668;-63
2024/01/25 08:48:47;;;;;;;10.30;2.87;;;7.90;99.90;;;;;;5015432;28;20209;-61
2024/01/25 08:51:13;;;;;;;12.27;2.70;;;7.90;99.90;;;;;;5016189;28;20185;-61
2024/01/25 08:53:38;;;;;;;9.83;3.43;;;7.90;99.90;;;;;;5010877;28;20210;-61
2024/01/25 08:56:04;;;;;;;9.30;3.57;;;8.00;99.90;;;;;;5012777;28;20180;-61
2024/01/25 08:58:30;;;;;;;17.03;4.03;;;7.90;99.90;;;;;;5012038;28;20189;-62
2024/01/25 09:00:56;;;;;;;20.03;3.87;;;8.00;99.90;;;;;;5015180;28;20523;-59
2024/01/25 09:03:22;;;;;;;8.70;2.53;;;8.00;99.90;;;;;;5009853;28;20198;-63
2024/01/25 09:05:48;;;;;;;11.83;3.20;;;8.00;99.90;;;;;;5012586;28;20254;-63
2024/01/25 09:08:14;;;;;;;12.77;2.40;;;8.00;99.90;;;;;;5009984;28;21043;-62
2024/01/25 09:10:41;;;;;;;8.17;2.93;;;8.00;99.90;;;;;;5014155;28;20264;-62
2024/01/25 09:13:07;;;;;;;22.10;6.90;;;8.00;99.90;;;;;;5015771;28;20810;-62
2024/01/25 09:15:33;;;;;;;13.90;4.93;;;8.00;99.90;;;;;;5012258;28;20539;-62
2024/01/25 09:17:58;;;;;;;5.83;2.20;;;8.00;99.90;;;;;;5011665;28;20897;-62
2024/01/25 09:20:25;;;;;;;16.10;2.80;;;8.00;99.90;;;;;;5014403;28;20178;-62
2024/01/25 09:22:51;;;;;;;16.37;3.80;;;8.00;99.90;;;;;;5011319;28;20219;-62
2024/01/25 09:25:16;;;;;;;10.60;4.17;;;8.10;99.90;;;;;;5016557;28;20417;-62
2024/01/25 09:27:42;;;;;;;10.87;2.80;;;8.00;99.90;;;;;;5013061;28;20256;-58
2024/01/25 09:30:08;;;;;;;11.00;3.00;;;7.90;99.90;;;;;;5018711;28;20179;-61
2024/01/25 09:32:34;;;;;;;16.63;4.80;;;7.90;99.90;;;;;;5013080;28;20209;-61
2024/01/25 09:34:59;;;;;;;20.03;3.67;;;7.90;99.90;;;;;;5027794;28;20419;-61
2024/01/25 09:37:25;;;;;;;7.70;2.73;;;8.00;99.90;;;;;;5013519;28;20432;-60
2024/01/25 09:39:51;;;;;;;9.90;2.90;;;7.90;99.90;;;;;;5015862;28;20226;-61
2024/01/25 09:42:18;;;;;;;8.73;2.90;;;7.90;99.90;;;;;;5012973;28;20208;-62
2024/01/25 09:44:44;;;;;;;7.23;2.70;;;8.00;99.90;;;;;;5012670;28;20242;-61
2024/01/25 09:47:10;;;;;;;11.70;3.40;;;7.80;99.90;;;;;;5015343;28;20430;-60
2024/01/25 09:49:35;;;;;;;10.27;3.60;;;7.90;99.90;;;;;;5020624;28;20935;-62
2024/01/25 09:52:05;;;;;;;7.10;2.30;;;7.90;99.90;;;;;;5020531;28;20423;-62
2024/01/25 09:54:38;;;;;;;13.23;3.27;;;7.90;99.90;;;;;;5013384;28;20756;-59
2024/01/25 09:57:08;;;;;;;9.37;2.80;;;7.90;99.90;;;;;;5014548;28;20424;-61
2024/01/25 09:59:34;;;;;;;9.00;2.50;;;7.90;99.90;;;;;;5015717;28;20568;-60
2024/01/25 10:02:01;;;;;;;9.07;2.70;;;7.90;99.90;;;;;;5020650;28;20514;-61
2024/01/25 10:04:27;;;;;;;15.00;4.10;;;7.90;99.90;;;;;;5019827;28;20273;-61
2024/01/25 10:06:56;;;;;;;16.53;3.60;;;7.90;99.90;;;;;;5014597;28;20423;-61
2024/01/25 10:09:22;;;;;;;22.33;4.13;;;7.80;99.90;;;;;;5016092;28;20202;-61
2024/01/25 10:11:48;;;;;;;14.13;3.33;;;7.90;99.90;;;;;;5017981;28;20487;-61
2024/01/25 10:14:13;;;;;;;8.10;3.43;;;7.90;99.90;;;;;;5022812;28;20464;-62
2024/01/25 10:16:39;;;;;;;12.17;3.23;;;8.00;99.90;;;;;;5015479;28;20189;-61
2024/01/25 10:19:09;;;;;;;7.83;2.60;;;7.90;99.90;;;;;;5017905;28;20186;-62
2024/01/25 10:21:36;;;;;;;8.47;2.67;;;8.00;99.90;;;;;;5015173;28;20205;-60
2024/01/25 10:24:02;;;;;;;11.37;3.03;;;8.00;99.90;;;;;;5019157;28;20441;-61
2024/01/25 10:26:28;;;;;;;13.93;3.27;;;8.00;99.90;;;;;;5018808;28;20433;-60
2024/01/25 10:28:54;;;;;;;8.87;3.83;;;8.00;99.90;;;;;;5012579;28;20450;-62
2024/01/25 10:31:25;;;;;;;10.20;3.10;;;8.00;99.90;;;;;;5015129;28;20176;-63
2024/01/25 10:33:52;;;;;;;11.07;2.60;;;8.10;99.90;;;;;;5011969;28;20462;-61
2024/01/25 10:36:20;;;;;;;13.03;3.53;;;8.10;99.90;;;;;;5010069;28;20466;-62
2024/01/25 10:38:48;;;;;;;11.80;2.70;;;8.10;99.90;;;;;;5011550;28;20493;-62
2024/01/25 10:41:17;;;;;;;14.00;2.93;;;8.00;99.90;;;;;;5013321;28;20451;-62
2024/01/25 10:43:42;;;;;;;9.30;2.87;;;8.10;99.90;;;;;;5010941;28;21008;-61
2024/01/25 10:46:09;;;;;;;10.70;3.60;;;8.10;99.90;;;;;;5012489;28;20419;-62
2024/01/25 10:48:34;;;;;;;8.00;2.70;;;8.20;99.90;;;;;;5018022;28;20202;-62
2024/01/25 10:51:02;;;;;;;16.37;3.80;;;8.10;99.90;;;;;;5019883;28;20520;-61
2024/01/25 10:53:31;;;;;;;13.33;3.50;;;8.20;99.90;;;;;;5012072;28;20206;-61
2024/01/25 10:55:57;;;;;;;10.90;3.20;;;8.30;99.90;;;;;;5014593;28;20434;-61
2024/01/25 10:58:22;;;;;;;10.83;3.50;;;8.30;99.90;;;;;;5011356;28;20517;-61
2024/01/25 11:00:52;;;;;;;9.20;3.70;;;8.40;99.90;;;;;;5014817;28;20897;-59
2024/01/25 11:03:19;;;;;;;6.77;2.83;;;8.40;99.90;;;;;;5011966;28;20265;-61
2024/01/25 11:05:47;;;;;;;8.13;2.83;;;8.40;99.90;;;;;;5015333;28;20426;-62
2024/01/25 11:08:19;;;;;;;8.80;2.47;;;8.40;99.90;;;;;;5019577;28;20422;-59
2024/01/25 11:10:50;;;;;;;9.47;2.90;;;8.30;99.90;;;;;;5016853;28;20701;-61
2024/01/25 11:13:16;;;;;;;11.23;3.93;;;8.40;99.90;;;;;;5018936;28;20480;-58
2024/01/25 11:15:41;;;;;;;9.20;3.47;;;8.40;99.90;;;;;;5013624;28;20520;-61
2024/01/25 11:18:08;;;;;;;18.93;3.30;;;8.40;99.90;;;;;;5017405;28;20602;-61
2024/01/25 11:20:36;;;;;;;8.10;4.30;;;8.40;99.90;;;;;;5013656;28;20186;-61
2024/01/25 11:23:04;;;;;;;12.03;2.60;;;8.50;99.90;;;;;;5016231;28;20454;-63
2024/01/25 11:25:34;;;;;;;18.43;4.33;;;8.50;99.90;;;;;;5019134;28;20418;-63
2024/01/25 11:28:01;;;;;;;7.23;3.00;;;8.50;99.90;;;;;;5011993;28;20941;-62
2024/01/25 11:30:30;;;;;;;10.70;2.90;;;8.40;99.90;;;;;;5013780;28;20430;-61
2024/01/25 11:32:55;;;;;;;8.93;3.10;;;8.50;99.90;;;;;;5015542;28;20668;-62
2024/01/25 11:35:21;;;;;;;7.20;2.90;;;8.60;99.90;;;;;;5016737;28;20941;-61
2024/01/25 11:37:48;;;;;;;12.63;3.20;;;8.50;99.90;;;;;;5014308;28;20444;-61
2024/01/25 11:40:15;;;;;;;8.50;2.67;;;8.60;99.90;;;;;;5010828;28;20191;-62
2024/01/25 11:42:43;;;;;;;13.57;4.00;;;8.50;99.90;;;;;;5011073;28;20447;-59
2024/01/25 11:45:11;;;;;;;15.63;3.63;;;8.50;99.90;;;;;;5010723;28;20432;-61
2024/01/25 11:47:37;;;;;;;14.17;4.37;;;8.70;99.90;;;;;;5013969;28;20410;-61
2024/01/25 11:50:06;;;;;;;10.93;3.07;;;8.60;99.90;;;;;;5017662;28;20481;-60
2024/01/25 11:52:33;;;;;;;9.10;3.07;;;8.50;99.90;;;;;;5017932;28;20465;-61
2024/01/25 11:55:06;;;;;;;11.87;2.60;;;8.50;99.90;;;;;;5011791;28;20950;-60
2024/01/25 11:57:36;;;;;;;9.20;2.30;;;8.60;99.90;;;;;;5013186;28;20403;-63
2024/01/25 12:00:04;;;;;;;9.53;2.40;;;8.60;99.90;;;;;;5015100;28;20921;-64
2024/01/25 12:02:31;;;;;;;4.63;1.90;;;8.70;99.90;;;;;;5017373;28;20424;-61
2024/01/25 12:04:57;;;;;;;8.23;1.93;;;8.70;99.90;;;;;;5014835;28;20925;-62
2024/01/25 12:07:22;;;;;;;6.07;2.40;;;8.60;99.90;;;;;;5012028;28;20497;-62
2024/01/25 12:10:05;;;;;;;11.07;2.40;;;8.80;99.90;;;;;;5013004;28;20651;-63
2024/01/25 12:12:31;;;;;;;9.07;2.63;;;8.70;99.90;;;;;;5018623;28;20209;-63
2024/01/25 12:15:04;;;;;;;10.00;2.53;;;8.90;99.90;;;;;;5012116;28;20437;-65
2024/01/25 12:17:30;;;;;;;17.53;3.00;;;8.80;99.90;;;;;;4998486;28;20845;-63
2024/01/25 12:19:59;;;;;;;11.80;4.50;;;8.80;99.90;;;;;;4994015;28;20529;-60
2024/01/25 12:22:29;;;;;;;8.30;2.47;;;8.90;99.90;;;;;;4992098;28;20446;-59
2024/01/25 12:24:58;;;;;;;10.03;3.27;;;8.90;99.90;;;;;;5002043;28;20492;-61
2024/01/25 12:27:25;;;;;;;10.33;2.60;;;9.00;99.90;;;;;;5009143;28;20408;-62
2024/01/25 12:29:55;;;;;;;16.03;2.87;;;8.80;99.90;;;;;;5010140;28;20504;-60
2024/01/25 12:32:21;;;;;;;8.93;3.07;;;8.80;99.90;;;;;;5010087;28;20475;-62
2024/01/25 12:35:03;;;;;;;6.20;2.13;;;8.90;99.90;;;;;;5009762;28;20446;-62
2024/01/25 12:37:29;;;;;;;9.80;2.50;;;8.90;99.90;;;;;;5009242;28;20186;-63
2024/01/25 12:39:55;;;;;;;19.30;3.03;;;8.90;99.90;;;;;;5004366;28;20429;-60
2024/01/25 12:42:21;;;;;;;11.70;2.80;;;8.80;99.90;;;;;;5009700;28;20928;-63
2024/01/25 12:44:47;;;;;;;11.20;3.20;;;8.70;99.90;;;;;;5009777;28;20203;-63